Time;durP1;ratioP1;P1;durP2;ratioP2;P2;SDS_P1;SDS_P2;PMS_P1;PMS_P2;Temp;Humidity;BMP_temperature;BMP_pressure;BME280_temperature;BME280_humidity;BME280_pressure;Samples;Min_cycle;Max_cycle;Signal;HPM_P1;HPM_P2
2022/03/02 00:02:46;;;;;;;0.00;0.00;;;;;;;21.98;nan;102590.81;10581117;27;20062;-81
2022/03/02 00:07:48;;;;;;;0.00;0.00;;;;;;;24.51;nan;102567.13;10569285;27;20047;-82
2022/03/02 00:12:50;;;;;;;0.00;0.00;;;;;;;24.56;nan;102575.88;10572656;27;20048;-82
2022/03/02 00:17:52;;;;;;;0.00;0.00;;;;;;;21.28;nan;102580.72;10562261;27;20043;-82
2022/03/02 00:22:53;;;;;;;0.00;0.00;;;;;;;20.50;nan;102589.53;10548816;28;20047;-82
2022/03/02 00:27:55;;;;;;;0.00;0.00;;;;;;;21.42;nan;102584.31;10551598;28;20066;-78
2022/03/02 00:32:59;;;;;;;0.00;0.00;;;;;;;21.46;nan;102580.88;10559843;27;20043;-78
2022/03/02 00:38:02;;;;;;;0.00;0.00;;;;;;;22.85;nan;102567.50;10571710;28;20054;-79
2022/03/02 00:43:05;;;;;;;0.00;0.00;;;;;;;23.87;nan;102559.50;10555797;27;20122;-79
2022/03/02 00:48:07;;;;;;;0.00;0.00;;;;;;;24.22;nan;102550.59;10540093;28;20047;-78
2022/03/02 00:53:09;;;;;;;0.00;0.00;;;;;;;22.09;nan;102555.88;10543888;27;20051;-79
2022/03/02 00:58:11;;;;;;;0.00;0.00;;;;;;;21.09;nan;102559.63;10534634;28;20047;-78
2022/03/02 01:03:13;;;;;;;0.00;0.00;;;;;;;21.47;nan;102560.75;10547102;27;20051;-79
2022/03/02 01:08:14;;;;;;;0.00;0.00;;;;;;;23.60;nan;102544.66;10553385;27;20478;-78
2022/03/02 01:13:16;;;;;;;0.00;0.00;;;;;;;24.90;nan;102533.50;10574597;28;20486;-79
2022/03/02 01:18:18;;;;;;;0.00;0.00;;;;;;;23.54;nan;102542.06;10568063;28;20405;-79
2022/03/02 01:23:19;;;;;;;0.00;0.00;;;;;;;24.49;nan;102530.28;10568571;28;20512;-80
2022/03/02 01:28:21;;;;;;;0.00;0.00;;;;;;;21.16;nan;102543.09;10536790;28;20506;-79
2022/03/02 01:33:23;;;;;;;0.00;0.00;;;;;;;20.44;nan;102544.13;10529103;28;20058;-78
2022/03/02 01:38:25;;;;;;;0.00;0.00;;;;;;;22.38;nan;102529.72;10576272;28;20040;-79
2022/03/02 01:43:29;;;;;;;0.00;0.00;;;;;;;23.71;nan;102519.22;10548353;28;20047;-79
2022/03/02 01:48:30;;;;;;;0.00;0.00;;;;;;;24.16;nan;102510.28;10563237;28;20045;-78
2022/03/02 01:53:32;;;;;;;0.00;0.00;;;;;;;24.65;nan;102502.03;10541807;28;20137;-78
2022/03/02 01:58:34;;;;;;;0.00;0.00;;;;;;;21.36;nan;102517.03;10548276;27;20055;-78
2022/03/02 02:03:36;;;;;;;24.88;22.75;;;;;;;22.69;nan;102495.66;10561415;28;20097;-78
2022/03/02 02:08:38;;;;;;;0.00;0.00;;;;;;;23.77;nan;102494.63;10554470;27;20561;-78
2022/03/02 02:13:40;;;;;;;0.00;0.00;;;;;;;20.32;nan;102506.47;10571556;27;20109;-79
2022/03/02 02:18:42;;;;;;;0.00;0.00;;;;;;;21.16;nan;102498.53;10529936;27;20074;-78
2022/03/02 02:23:43;;;;;;;0.00;0.00;;;;;;;20.80;nan;102499.09;10585750;27;20095;-78
2022/03/02 02:28:45;;;;;;;0.00;0.00;;;;;;;21.85;nan;102498.06;10566245;28;20057;-79
2022/03/02 02:33:47;;;;;;;0.00;0.00;;;;;;;23.94;nan;102486.66;10596241;27;20043;-78
2022/03/02 02:38:58;;;;;;;0.00;0.00;;;;;;;20.18;nan;102491.50;10566593;27;20040;-78
2022/03/02 02:44:00;;;;;;;0.00;0.00;;;;;;;20.53;nan;102496.22;10558922;28;20039;-79
2022/03/02 02:49:02;;;;;;;0.00;0.00;;;;;;;20.42;nan;102488.25;10560280;27;20050;-78
2022/03/02 02:54:04;;;;;;;0.00;0.00;;;;;;;22.97;nan;102479.91;10581742;27;20044;-78
2022/03/02 02:59:05;;;;;;;0.00;0.00;;;;;;;21.18;nan;102491.56;10583659;27;20044;-78
2022/03/02 03:04:08;;;;;;;0.00;0.00;;;;;;;19.09;nan;102496.97;10579015;27;20134;-80
2022/03/02 03:09:13;;;;;;;0.00;0.00;;;;;;;19.15;nan;102490.97;10543574;27;20078;-79
2022/03/02 03:14:15;;;;;;;0.00;0.00;;;;;;;21.55;nan;102478.69;10543687;28;20054;-79
2022/03/02 03:19:17;;;;;;;0.20;0.20;;;;;;;19.68;nan;102481.25;10562749;27;20402;-79
2022/03/02 03:24:19;;;;;;;0.00;0.00;;;;;;;22.30;nan;102473.72;10571791;27;20036;-78
2022/03/02 03:29:20;;;;;;;0.00;0.00;;;;;;;20.20;nan;102475.81;10565856;28;20124;-78
2022/03/02 03:34:22;;;;;;;0.45;0.45;;;;;;;19.52;nan;102473.22;10583485;27;20054;-78
2022/03/02 03:39:24;;;;;;;0.00;0.00;;;;;;;19.94;nan;102468.56;10572066;27;20118;-78
2022/03/02 03:44:25;;;;;;;0.13;0.13;;;;;;;22.15;nan;102450.91;10554828;27;20489;-78
2022/03/02 03:49:27;;;;;;;0.00;0.00;;;;;;;22.66;nan;102443.13;10545850;27;20491;-79
2022/03/02 03:54:32;;;;;;;0.40;0.40;;;;;;;18.99;nan;102459.38;10566256;27;20490;-78
2022/03/02 03:59:34;;;;;;;0.00;0.00;;;;;;;18.71;nan;102458.91;10578452;27;20067;-78
2022/03/02 04:04:36;;;;;;;0.22;0.22;;;;;;;19.22;nan;102453.63;10594223;27;20520;-79
2022/03/02 04:09:38;;;;;;;2.58;2.38;;;;;;;22.57;nan;102432.63;10558931;27;20043;-78
2022/03/02 04:14:41;;;;;;;0.00;0.00;;;;;;;21.79;nan;102432.44;10573168;27;20074;-78
2022/03/02 04:19:43;;;;;;;0.00;0.00;;;;;;;22.30;nan;102434.34;10574133;27;20039;-78
2022/03/02 04:24:46;;;;;;;0.00;0.00;;;;;;;20.59;nan;102441.28;10562661;28;20047;-79
2022/03/02 04:29:48;;;;;;;0.00;0.00;;;;;;;21.25;nan;102429.56;10541354;27;20047;-77
2022/03/02 04:34:50;;;;;;;0.43;0.43;;;;;;;21.82;nan;102421.97;10552103;28;20059;-78
2022/03/02 04:39:52;;;;;;;0.00;0.00;;;;;;;18.90;nan;102430.47;10565178;27;20073;-79
2022/03/02 04:44:53;;;;;;;0.00;0.00;;;;;;;19.28;nan;102414.53;10558940;28;20050;-79
2022/03/02 04:49:55;;;;;;;0.00;0.00;;;;;;;20.69;nan;102407.31;10529248;28;20036;-78
2022/03/02 04:55:06;;;;;;;0.00;0.00;;;;;;;21.82;nan;102406.22;10568419;28;20056;-78
2022/03/02 05:00:14;;;;;;;0.00;0.00;;;;;;;22.48;nan;102396.75;10562916;27;20410;-78
2022/03/02 05:05:19;;;;;;;1.17;1.17;;;;;;;21.44;nan;102391.19;10544743;28;20440;-78
2022/03/02 05:10:22;;;;;;;0.00;0.00;;;;;;;21.91;nan;102389.63;10539034;28;20513;-79
2022/03/02 05:15:25;;;;;;;0.00;0.00;;;;;;;19.45;nan;102400.81;10569074;28;20057;-78
2022/03/02 05:20:27;;;;;;;0.00;0.00;;;;;;;22.07;nan;102385.31;10572857;28;20036;-78
2022/03/02 05:25:29;;;;;;;0.00;0.00;;;;;;;21.90;nan;102387.88;10565328;28;20486;-78
2022/03/02 05:30:30;;;;;;;0.00;0.00;;;;;;;21.87;nan;102386.13;10568191;28;20504;-78
2022/03/02 05:35:32;;;;;;;0.00;0.00;;;;;;;20.91;nan;102398.78;10588251;28;20058;-78
2022/03/02 05:40:33;;;;;;;0.00;0.00;;;;;;;19.48;nan;102390.38;10569363;28;20065;-78
2022/03/02 05:45:35;;;;;;;0.00;0.00;;;;;;;19.32;nan;102390.19;10569977;28;20059;-78
2022/03/02 05:50:37;;;;;;;0.32;0.32;;;;;;;18.07;nan;102403.84;10570008;28;20046;-78
2022/03/02 05:55:42;;;;;;;0.00;0.00;;;;;;;19.32;nan;102400.63;10584238;27;20061;-78
2022/03/02 06:00:43;;;;;;;0.00;0.00;;;;;;;21.16;nan;102392.81;10563190;27;20047;-78
2022/03/02 06:05:45;;;;;;;0.00;0.00;;;;;;;21.09;nan;102397.16;10593001;27;20063;-78
2022/03/02 06:10:48;;;;;;;0.00;0.00;;;;;;;20.42;nan;102414.09;10615734;27;20115;-78
2022/03/02 06:15:50;;;;;;;0.00;0.00;;;;;;;18.51;nan;102418.50;10571895;28;20075;-78
2022/03/02 06:20:52;;;;;;;0.00;0.00;;;;;;;19.86;nan;102408.28;10568525;28;20047;-78
2022/03/02 06:25:55;;;;;;;0.00;0.00;;;;;;;20.26;nan;102408.72;10564319;28;20054;-77
2022/03/02 06:30:57;;;;;;;0.00;0.00;;;;;;;19.81;nan;102417.78;10562214;28;20434;-77
2022/03/02 06:35:58;;;;;;;0.00;0.00;;;;;;;19.43;nan;102416.47;10583856;28;20044;-76
2022/03/02 06:41:11;;;;;;;0.00;0.00;;;;;;;20.22;nan;102409.53;10548028;28;20050;-78
2022/03/02 06:46:27;;;;;;;0.00;0.00;;;;;;;21.02;nan;102408.47;10531757;28;20052;-77
2022/03/02 06:51:30;;;;;;;0.47;0.47;;;;;;;20.78;nan;102417.91;10557539;28;20486;-78
2022/03/02 06:56:44;;;;;;;0.00;0.00;;;;;;;20.86;nan;102410.97;10573058;27;20050;-78
2022/03/02 07:01:50;;;;;;;0.00;0.00;;;;;;;21.43;nan;102412.19;10526286;28;20051;-78
2022/03/02 07:06:53;;;;;;;0.00;0.00;;;;;;;21.93;nan;102410.66;10539501;28;20062;-78
2022/03/02 07:11:56;;;;;;;0.00;0.00;;;;;;;22.14;nan;102408.06;10564881;28;20142;-78
2022/03/02 07:16:59;;;;;;;0.80;0.52;;;;;;;19.79;nan;102409.03;10584810;27;20058;-79
2022/03/02 07:22:07;;;;;;;0.17;0.17;;;;;;;20.19;nan;102417.38;10564930;28;20044;-79
2022/03/02 07:27:10;;;;;;;0.10;0.10;;;;;;;21.22;nan;102409.44;10583598;28;20047;-78
2022/03/02 07:32:14;;;;;;;0.35;0.20;;;;;;;19.85;nan;102414.38;10564153;28;20185;-78
2022/03/02 07:37:16;;;;;;;0.00;0.00;;;;;;;20.71;nan;102414.31;10564392;28;20534;-78
2022/03/02 07:42:19;;;;;;;0.00;0.00;;;;;;;20.57;nan;102411.59;10547783;28;20070;-77
2022/03/02 07:47:21;;;;;;;0.30;0.30;;;;;;;19.79;nan;102416.88;10557596;28;20047;-79
2022/03/02 07:52:30;;;;;;;1.08;0.98;;;;;;;19.84;nan;102415.25;10556617;27;20372;-78
2022/03/02 07:57:34;;;;;;;0.40;0.40;;;;;;;18.66;nan;102421.38;10565647;28;20054;-79
2022/03/02 08:02:40;;;;;;;1.45;0.98;;;;;;;19.75;nan;102420.34;10552769;28;20051;-78
2022/03/02 08:07:49;;;;;;;0.00;0.00;;;;;;;20.42;nan;102419.31;10563497;28;20047;-79
2022/03/02 08:12:52;;;;;;;0.85;0.55;;;;;;;19.61;nan;102417.56;10580809;28;20047;-79
2022/03/02 08:17:55;;;;;;;1.30;1.10;;;;;;;20.75;nan;102417.88;10572716;28;20067;-78
2022/03/02 08:23:19;;;;;;;1.23;1.13;;;;;;;20.68;nan;102421.28;10565979;28;20465;-78
2022/03/02 08:28:24;;;;;;;0.20;0.20;;;;;;;19.73;nan;102419.44;10545510;28;20055;-79
2022/03/02 08:33:29;;;;;;;3.20;3.00;;;;;;;20.32;nan;102426.22;10557680;27;20171;-79
2022/03/02 08:38:31;;;;;;;2.83;1.25;;;;;;;20.47;nan;102422.00;10551566;27;20051;-80
2022/03/02 08:43:36;;;;;;;2.90;1.35;;;;;;;21.71;nan;102410.56;10573720;27;20048;-80
2022/03/02 08:48:38;;;;;;;0.60;0.52;;;;;;;22.37;nan;102411.56;10540966;28;20048;-78
2022/03/02 08:53:44;;;;;;;3.70;1.02;;;;;;;23.34;nan;102408.88;10532554;27;20478;-79
2022/03/02 08:58:48;;;;;;;0.10;0.10;;;;;;;21.33;nan;102403.41;10536967;27;20483;-79
2022/03/02 09:03:53;;;;;;;0.43;0.43;;;;;;;23.97;nan;102393.69;10575842;27;20506;-80
2022/03/02 09:08:59;;;;;;;0.28;0.28;;;;;;;23.17;nan;102397.50;10543668;28;20044;-79
2022/03/02 09:14:01;;;;;;;5.85;2.10;;;;;;;24.14;nan;102393.56;10558680;28;20046;-79
2022/03/02 09:19:07;;;;;;;2.03;0.25;;;;;;;22.22;nan;102394.06;10558361;28;20494;-78
2022/03/02 09:24:12;;;;;;;0.30;0.22;;;;;;;22.98;nan;102381.75;10553592;28;20047;-80
2022/03/02 09:29:17;;;;;;;1.08;0.80;;;;;;;24.26;nan;102375.00;10557477;28;20076;-79
2022/03/02 09:34:27;;;;;;;2.28;2.08;;;;;;;24.10;nan;102381.28;10541520;28;20043;-79
2022/03/02 09:39:29;;;;;;;;;;;;;;;24.15;nan;102376.88;10561971;28;20053;-80
2022/03/02 09:44:47;;;;;;;1.95;0.65;;;;;;;23.83;nan;102367.41;10581792;28;19967;-78
2022/03/02 09:49:55;;;;;;;1.85;1.75;;;;;;;26.07;nan;102361.50;10558387;28;20051;-79
2022/03/02 09:54:58;;;;;;;0.20;0.10;;;;;;;24.59;nan;102374.72;10558555;28;20036;-79
2022/03/02 10:00:01;;;;;;;6.40;2.13;;;;;;;24.63;nan;102364.16;10532720;28;20470;-78
2022/03/02 10:05:16;;;;;;;1.00;0.90;;;;;;;25.71;nan;102358.53;10589346;28;20085;-79
2022/03/02 10:10:22;;;;;;;2.00;1.83;;;;;;;22.03;nan;102366.06;10547705;28;20049;-78
2022/03/02 10:15:24;;;;;;;0.75;0.75;;;;;;;25.05;nan;102365.50;10540912;28;20077;-80
2022/03/02 10:20:35;;;;;;;2.28;2.08;;;;;;;25.97;nan;102356.34;10562893;28;20032;-80
2022/03/02 10:25:44;;;;;;;1.08;0.75;;;;;;;22.86;nan;102368.66;10547355;28;20044;-79
2022/03/02 10:31:00;;;;;;;3.10;1.73;;;;;;;26.01;nan;102351.03;10564568;28;20066;-78
2022/03/02 10:36:07;;;;;;;0.95;0.70;;;;;;;26.22;nan;102353.34;10565095;28;20039;-80
2022/03/02 10:41:09;;;;;;;0.82;0.82;;;;;;;27.07;nan;102345.63;10564626;28;20048;-79
2022/03/02 10:46:16;;;;;;;3.10;1.85;;;;;;;22.95;nan;102350.25;10564304;27;20086;-79
2022/03/02 10:51:23;;;;;;;0.10;0.10;;;;;;;27.39;nan;102341.41;10584523;27;20063;-79
2022/03/02 10:56:40;;;;;;;1.55;1.33;;;;;;;26.55;nan;102345.69;10555320;27;20533;-79
2022/03/02 11:01:43;;;;;;;2.38;1.45;;;;;;;24.96;nan;102338.38;10535834;28;20055;-78
2022/03/02 11:06:49;;;;;;;1.00;1.00;;;;;;;25.95;nan;102331.72;10524459;28;20043;-79
2022/03/02 11:12:12;;;;;;;1.27;0.82;;;;;;;27.34;nan;102322.13;10562587;28;20044;-79
2022/03/02 11:17:15;;;;;;;0.00;0.00;;;;;;;27.58;nan;102325.16;10561343;28;20047;-80
2022/03/02 11:22:26;;;;;;;0.10;0.05;;;;;;;27.77;nan;102318.50;10570557;28;20043;-79
2022/03/02 11:27:48;;;;;;;1.95;1.55;;;;;;;26.44;nan;102323.91;10562241;28;20062;-79
2022/03/02 11:32:50;;;;;;;0.00;0.00;;;;;;;28.10;nan;102313.34;10561888;27;20043;-79
2022/03/02 11:37:57;;;;;;;2.17;1.38;;;;;;;26.37;nan;102302.00;10539161;28;20040;-78
2022/03/02 11:43:25;;;;;;;1.58;1.48;;;;;;;26.47;nan;102296.53;10577500;27;20138;-79
2022/03/02 11:48:29;;;;;;;0.68;0.55;;;;;;;27.99;nan;102289.72;10558208;27;20105;-79
2022/03/02 11:53:37;;;;;;;0.00;0.00;;;;;;;27.82;nan;102282.19;10549483;27;20039;-79
2022/03/02 11:59:09;;;;;;;0.30;0.30;;;;;;;26.69;nan;102278.50;10555910;28;20051;-85
2022/03/02 12:04:17;;;;;;;0.90;0.30;;;;;;;27.40;nan;102269.91;10565306;28;20451;-84
2022/03/02 12:09:38;;;;;;;3.03;0.57;;;;;;;24.61;nan;102278.09;10548702;28;20380;-84
2022/03/02 12:14:49;;;;;;;0.77;0.77;;;;;;;26.97;nan;102264.75;10552115;27;20476;-84
2022/03/02 12:19:54;;;;;;;0.08;0.05;;;;;;;27.59;nan;102255.44;10528968;28;20177;-84
2022/03/02 12:24:58;;;;;;;3.38;1.33;;;;;;;24.39;nan;102263.41;10541471;27;20052;-84
2022/03/02 12:30:06;;;;;;;0.10;0.10;;;;;;;26.46;nan;102234.91;10518126;27;20302;-85
2022/03/02 12:35:13;;;;;;;0.00;0.00;;;;;;;27.07;nan;102223.94;10572894;28;20129;-85
2022/03/02 12:40:14;;;;;;;0.47;0.40;;;;;;;24.31;nan;102238.91;10553712;28;20047;-85
2022/03/02 12:45:18;;;;;;;0.00;0.00;;;;;;;26.18;nan;102216.94;10575309;27;20051;-84
2022/03/02 12:50:19;;;;;;;0.93;0.52;;;;;;;25.01;nan;102220.53;10560514;28;20050;-85
2022/03/02 12:55:21;;;;;;;0.95;0.95;;;;;;;26.86;nan;102218.25;10558082;27;20057;-85
2022/03/02 13:00:23;;;;;;;0.20;0.10;;;;;;;26.01;nan;102211.09;10529335;28;20138;-85
2022/03/02 13:05:47;;;;;;;4.93;1.58;;;;;;;23.34;nan;102222.19;10545018;28;20054;-84
2022/03/02 13:10:49;;;;;;;0.98;0.50;;;;;;;25.52;nan;102204.88;10548964;28;20054;-85
2022/03/02 13:15:54;;;;;;;2.97;1.83;;;;;;;23.36;nan;102209.00;10541671;28;20075;-85
2022/03/02 13:20:59;;;;;;;4.10;1.92;;;;;;;22.48;nan;102199.78;10531790;28;20040;-84
2022/03/02 13:26:01;;;;;;;2.78;1.77;;;;;;;25.12;nan;102196.66;10538043;28;20055;-84
2022/03/02 13:31:14;;;;;;;1.83;1.20;;;;;;;23.02;nan;102196.91;10548465;28;20043;-84
2022/03/02 13:36:36;;;;;;;1.85;0.70;;;;;;;24.03;nan;102183.03;10567114;28;20090;-84
2022/03/02 13:41:47;;;;;;;0.30;0.30;;;;;;;24.98;nan;102183.66;10521158;28;20173;-85
2022/03/02 13:47:18;;;;;;;0.15;0.08;;;;;;;24.93;nan;102169.69;10554415;28;20061;-84
2022/03/02 13:52:28;;;;;;;4.43;1.73;;;;;;;23.76;nan;102175.38;10549208;27;20060;-83
2022/03/02 13:57:32;;;;;;;0.00;0.00;;;;;;;25.30;nan;102163.84;10582593;27;20101;-84
2022/03/02 14:02:37;;;;;;;2.63;0.93;;;;;;;23.82;nan;102170.91;10568565;28;20124;-85
2022/03/02 14:07:40;;;;;;;1.85;1.33;;;;;;;23.41;nan;102170.38;10562455;28;20078;-84
2022/03/02 14:12:58;;;;;;;1.35;0.80;;;;;;;22.65;nan;102162.94;10558613;28;20067;-85
2022/03/02 14:18:05;;;;;;;0.68;0.55;;;;;;;23.28;nan;102164.34;10561475;28;20048;-84
2022/03/02 14:23:08;;;;;;;2.30;1.65;;;;;;;23.74;nan;102148.19;10561550;28;20044;-84
2022/03/02 14:28:14;;;;;;;0.32;0.32;;;;;;;23.97;nan;102139.22;10544866;28;20058;-84
2022/03/02 14:33:17;;;;;;;5.75;5.18;;;;;;;24.48;nan;102135.13;10578377;28;20048;-84
2022/03/02 14:38:19;;;;;;;1.38;1.23;;;;;;;23.69;nan;102133.31;10544213;28;20060;-84
2022/03/02 14:43:28;;;;;;;0.10;0.10;;;;;;;25.15;nan;102125.41;10559802;28;20051;-84
2022/03/02 14:48:32;;;;;;;0.63;0.63;;;;;;;24.18;nan;102124.97;10578083;28;20048;-84
2022/03/02 14:53:37;;;;;;;1.33;1.10;;;;;;;24.27;nan;102129.22;10577781;28;20047;-84
2022/03/02 14:58:46;;;;;;;2.75;2.38;;;;;;;23.97;nan;102117.31;10572531;27;20051;-84
2022/03/02 15:03:49;;;;;;;0.32;0.25;;;;;;;23.75;nan;102113.09;10576643;28;20058;-83
2022/03/02 15:09:04;;;;;;;0.70;0.32;;;;;;;25.18;nan;102100.75;10560140;27;20063;-84
2022/03/02 15:15:01;;;;;;;0.00;0.00;;;;;;;24.57;nan;102097.25;10506724;27;20051;-84
2022/03/02 15:20:06;;;;;;;0.00;0.00;;;;;;;23.72;nan;102088.59;10552888;27;20043;-84
2022/03/02 15:25:10;;;;;;;0.00;0.00;;;;;;;23.63;nan;102086.03;10537052;28;20409;-84
2022/03/02 15:30:15;;;;;;;0.38;0.38;;;;;;;23.61;nan;102073.75;10574332;27;20410;-83
2022/03/02 15:35:21;;;;;;;0.30;0.20;;;;;;;22.81;nan;102080.56;10557329;27;20075;-84
2022/03/02 15:40:24;;;;;;;0.65;0.65;;;;;;;23.44;nan;102065.19;10539159;28;20038;-84
2022/03/02 15:45:30;;;;;;;0.00;0.00;;;;;;;23.48;nan;102060.78;10551118;28;20047;-84
2022/03/02 15:50:37;;;;;;;0.28;0.22;;;;;;;23.54;nan;102063.34;10528821;27;20051;-84
2022/03/02 15:55:46;;;;;;;0.00;0.00;;;;;;;24.41;nan;102055.31;10553012;28;20153;-83
2022/03/02 16:00:50;;;;;;;2.50;0.90;;;;;;;22.42;nan;102072.00;10565115;27;20039;-83
2022/03/02 16:05:54;;;;;;;0.38;0.38;;;;;;;24.35;nan;102056.28;10546967;27;20440;-84
2022/03/02 16:11:23;;;;;;;0.38;0.38;;;;;;;23.03;nan;102063.75;10585971;27;20397;-84
2022/03/02 16:16:26;;;;;;;0.00;0.00;;;;;;;22.89;nan;102071.75;10551172;27;20058;-83
2022/03/02 16:21:28;;;;;;;0.00;0.00;;;;;;;23.68;nan;102053.53;10591100;27;20055;-83
2022/03/02 16:26:32;;;;;;;1.65;0.47;;;;;;;23.08;nan;102052.31;10548242;28;20070;-83
2022/03/02 16:31:34;;;;;;;0.00;0.00;;;;;;;23.21;nan;102039.97;10558710;28;20067;-83
2022/03/02 16:36:36;;;;;;;1.45;1.33;;;;;;;22.45;nan;102050.97;10581040;27;20520;-84
2022/03/02 16:41:42;;;;;;;0.00;0.00;;;;;;;21.41;nan;102047.75;10546746;28;20040;-84
2022/03/02 16:46:44;;;;;;;0.00;0.00;;;;;;;21.69;nan;102058.25;10571180;28;20132;-84
2022/03/02 16:52:07;;;;;;;0.00;0.00;;;;;;;22.92;nan;102050.69;10557673;27;20503;-84
2022/03/02 16:57:09;;;;;;;0.00;0.00;;;;;;;23.81;nan;102050.75;10549200;27;20061;-85
2022/03/02 17:02:10;;;;;;;0.00;0.00;;;;;;;24.49;nan;102047.31;10563794;27;20047;-84
2022/03/02 17:07:13;;;;;;;0.00;0.00;;;;;;;24.23;nan;102045.91;10577703;27;20194;-84
2022/03/02 17:12:14;;;;;;;0.00;0.00;;;;;;;23.59;nan;102049.25;10553023;28;20050;-84
2022/03/02 17:17:16;;;;;;;0.00;0.00;;;;;;;23.22;nan;102046.09;10549463;28;20041;-84
2022/03/02 17:22:19;;;;;;;0.00;0.00;;;;;;;23.73;nan;102041.19;10558444;28;20187;-83
2022/03/02 17:27:22;;;;;;;0.00;0.00;;;;;;;22.28;nan;102052.81;10529963;28;20040;-84
2022/03/02 17:32:24;;;;;;;0.00;0.00;;;;;;;20.51;nan;102062.50;10576153;27;20049;-84
2022/03/02 17:37:26;;;;;;;0.00;0.00;;;;;;;20.68;nan;102054.69;10562918;27;20494;-84
2022/03/02 17:42:29;;;;;;;0.15;0.15;;;;;;;21.56;nan;102066.09;10594092;27;20040;-83
2022/03/02 17:47:31;;;;;;;0.00;0.00;;;;;;;19.38;nan;102065.34;10541931;27;20055;-83
2022/03/02 17:52:33;;;;;;;0.00;0.00;;;;;;;20.23;nan;102058.03;10559735;27;20134;-84
2022/03/02 17:57:35;;;;;;;0.00;0.00;;;;;;;20.95;nan;102058.25;10565225;27;20057;-84
2022/03/02 18:02:36;;;;;;;0.00;0.00;;;;;;;22.20;nan;102052.81;10568559;27;20044;-83
2022/03/02 18:07:38;;;;;;;0.00;0.00;;;;;;;21.53;nan;102058.25;10569360;27;20079;-84
2022/03/02 18:12:41;;;;;;;0.00;0.00;;;;;;;19.75;nan;102063.00;10554381;27;20044;-83
2022/03/02 18:17:44;;;;;;;0.00;0.00;;;;;;;20.44;nan;102056.34;10539965;27;20047;-83
2022/03/02 18:22:46;;;;;;;0.57;0.57;;;;;;;20.91;nan;102053.00;10550488;28;20047;-83
2022/03/02 18:27:48;;;;;;;0.20;0.20;;;;;;;19.86;nan;102057.00;10578919;27;20051;-83
2022/03/02 18:32:50;;;;;;;0.00;0.00;;;;;;;20.72;nan;102052.09;10558473;28;20594;-83
2022/03/02 18:37:52;;;;;;;0.00;0.00;;;;;;;18.58;nan;102062.81;10574307;27;20047;-83
2022/03/02 18:42:54;;;;;;;0.00;0.00;;;;;;;19.86;nan;102057.84;10559476;28;20118;-83
2022/03/02 18:47:56;;;;;;;0.00;0.00;;;;;;;21.38;nan;102038.16;10553163;27;20047;-83
2022/03/02 18:52:58;;;;;;;0.00;0.00;;;;;;;20.67;nan;102053.81;10553293;27;20040;-83
2022/03/02 18:58:00;;;;;;;0.00;0.00;;;;;;;19.23;nan;102049.53;10566194;27;20062;-83
2022/03/02 19:03:02;;;;;;;0.00;0.00;;;;;;;19.69;nan;102046.41;10548466;27;20030;-83
2022/03/02 19:08:08;;;;;;;0.00;0.00;;;;;;;19.65;nan;102046.38;10552484;28;20078;-83
2022/03/02 19:13:10;;;;;;;0.13;0.13;;;;;;;19.76;nan;102048.19;10569371;27;20050;-83
2022/03/02 19:18:11;;;;;;;0.00;0.00;;;;;;;19.36;nan;102046.16;10552788;28;20051;-83
2022/03/02 19:23:15;;;;;;;0.00;0.00;;;;;;;18.43;nan;102055.72;10560477;27;20122;-84
2022/03/02 19:28:21;;;;;;;0.00;0.00;;;;;;;20.29;nan;102050.19;10541356;27;20414;-84
2022/03/02 19:33:22;;;;;;;0.00;0.00;;;;;;;20.00;nan;102054.44;10569242;27;20057;-83
2022/03/02 19:43:53;;;;;;;0.00;0.00;;;;;;;19.47;nan;102054.97;10543268;27;20047;-83
2022/03/02 19:48:57;;;;;;;0.00;0.00;;;;;;;18.57;nan;102058.47;10553957;27;20447;-84
2022/03/02 19:53:59;;;;;;;0.00;0.00;;;;;;;19.07;nan;102059.00;10549588;28;20061;-83
2022/03/02 19:59:01;;;;;;;0.00;0.00;;;;;;;19.00;nan;102061.56;10565402;27;20047;-82
2022/03/02 20:04:04;;;;;;;0.00;0.00;;;;;;;17.95;nan;102064.59;10547896;28;20048;-83
2022/03/02 20:09:08;;;;;;;0.00;0.00;;;;;;;19.70;nan;102050.75;10557637;27;20043;-83
2022/03/02 20:14:09;;;;;;;0.00;0.00;;;;;;;18.95;nan;102059.75;10552483;27;20029;-83
2022/03/02 20:19:11;;;;;;;0.00;0.00;;;;;;;19.61;nan;102052.47;10549930;27;20040;-83
2022/03/02 20:24:13;;;;;;;0.00;0.00;;;;;;;19.32;nan;102055.72;10567860;28;20398;-83
2022/03/02 20:29:16;;;;;;;0.00;0.00;;;;;;;19.25;nan;102061.75;10542162;27;20051;-83
2022/03/02 20:34:21;;;;;;;0.00;0.00;;;;;;;17.24;nan;102064.41;10564651;28;20120;-83
2022/03/02 20:39:25;;;;;;;0.00;0.00;;;;;;;17.68;nan;102063.38;10535479;27;20040;-83
2022/03/02 20:44:26;;;;;;;0.82;0.80;;;;;;;15.94;nan;102077.47;10556448;28;20046;-83
2022/03/02 20:49:29;;;;;;;3.58;2.63;;;;;;;17.91;nan;102061.09;10553848;28;20051;-83
2022/03/02 20:54:30;;;;;;;0.17;0.17;;;;;;;16.81;nan;102062.78;10552255;27;20047;-83
2022/03/02 20:59:32;;;;;;;0.10;0.10;;;;;;;18.12;nan;102054.47;10555908;28;20055;-82
2022/03/02 21:04:33;;;;;;;0.00;0.00;;;;;;;17.67;nan;102052.09;10538271;28;20422;-83
2022/03/02 21:09:36;;;;;;;0.00;0.00;;;;;;;17.19;nan;102058.25;10556307;28;20482;-83
2022/03/02 21:14:38;;;;;;;0.00;0.00;;;;;;;16.63;nan;102062.44;10540510;27;20390;-83
2022/03/02 21:19:45;;;;;;;0.10;0.10;;;;;;;18.27;nan;102051.16;10562034;27;20046;-83
2022/03/02 21:24:46;;;;;;;0.00;0.00;;;;;;;16.99;nan;102056.19;10570599;28;20091;-83
2022/03/02 21:29:49;;;;;;;0.28;0.28;;;;;;;18.06;nan;102048.28;10575642;28;20442;-83
2022/03/02 21:34:52;;;;;;;0.00;0.00;;;;;;;18.31;nan;102040.78;10616525;28;20046;-83
2022/03/02 21:39:54;;;;;;;0.00;0.00;;;;;;;18.22;nan;102035.44;10609201;28;20409;-83
2022/03/02 21:44:56;;;;;;;0.00;0.00;;;;;;;18.27;nan;102030.28;10557918;28;20047;-83
2022/03/02 21:49:57;;;;;;;0.00;0.00;;;;;;;17.83;nan;102021.88;10557028;28;20055;-83
2022/03/02 21:55:00;;;;;;;0.00;0.00;;;;;;;16.35;nan;102046.25;10550265;28;20679;-83
2022/03/02 22:00:05;;;;;;;0.00;0.00;;;;;;;17.44;nan;102031.75;10538912;28;20047;-83
2022/03/02 22:05:08;;;;;;;0.00;0.00;;;;;;;18.42;nan;102030.47;10536843;28;20119;-83
2022/03/02 22:10:10;;;;;;;0.00;0.00;;;;;;;18.41;nan;102014.81;10551819;28;20056;-83
2022/03/02 22:15:11;;;;;;;0.00;0.00;;;;;;;17.69;nan;102018.22;10557368;27;20039;-83
2022/03/02 22:20:13;;;;;;;0.00;0.00;;;;;;;16.68;nan;102024.38;10557446;28;20058;-82
2022/03/02 22:25:15;;;;;;;0.00;0.00;;;;;;;15.69;nan;102027.50;10561029;28;20039;-82
2022/03/02 22:30:16;;;;;;;0.00;0.00;;;;;;;15.31;nan;102030.06;10543981;27;20069;-82
2022/03/02 22:35:18;;;;;;;0.00;0.00;;;;;;;14.70;nan;102043.25;10572968;27;20040;-83
2022/03/02 22:40:20;;;;;;;0.10;0.10;;;;;;;15.20;nan;102038.50;10558109;28;20067;-82
2022/03/02 22:45:21;;;;;;;0.00;0.00;;;;;;;15.78;nan;102038.09;10570342;27;20070;-82
2022/03/02 22:50:23;;;;;;;0.20;0.20;;;;;;;17.86;nan;102027.16;10574151;27;20055;-82
2022/03/02 22:55:30;;;;;;;0.10;0.10;;;;;;;16.48;nan;102032.69;10548951;27;20082;-82
2022/03/02 23:01:12;;;;;;;0.00;0.00;;;;;;;15.21;nan;102029.88;10562504;27;20052;-82
2022/03/02 23:22:18;;;;;;;0.00;0.00;;;;;;;17.07;nan;102030.28;10573919;27;20036;-82
2022/03/02 23:27:19;;;;;;;0.00;0.00;;;;;;;15.74;nan;102036.31;10523609;28;20410;-82
2022/03/02 23:32:21;;;;;;;0.00;0.00;;;;;;;18.24;nan;102023.31;10547524;28;20042;-82
2022/03/02 23:37:23;;;;;;;0.00;0.00;;;;;;;16.00;nan;102025.63;10544591;28;20479;-83
2022/03/02 23:42:25;;;;;;;0.20;0.20;;;;;;;17.56;nan;102023.25;10558121;28;20509;-82
2022/03/02 23:47:27;;;;;;;0.00;0.00;;;;;;;17.69;nan;102008.66;10583550;27;20059;-82
2022/03/02 23:52:28;;;;;;;1.23;1.13;;;;;;;17.87;nan;102008.03;10562236;27;20039;-82
2022/03/02 23:57:31;;;;;;;0.00;0.00;;;;;;;18.90;nan;102010.06;10582181;27;20056;-82
